Aérodrome :
LOGIN :

S'inscrire | Disclaimer

   EN    FR    IT 

 










Légende :    VFR   VFR Marginal   IFR   IFR Intensif   IFR Très Intensif
Visi : 
Plafond : 
>= 8 km
>= 3000ft
5 à 8 km
1000 à 3000 ft
1500m à 5 km
500 à 1000 ft
800 à 1500m
200 à 500 ft
< 800m
< 200 ft
Symboles :   Orages  Brouillard  Fortes neiges  Fortes précipitations  Vent > 20 kt
SIGMETs :   Divers  Orages  Givrage  Turbulence  Onde Orograph.  Cendres Volcan.






- Altitude de l'aérodrome : 1708 ft
- Code IATA : SJJ


LQSA - Sarajevo

DERNIER METAR :
  • 240800Z 16009KT 100V210 9999 BKN050 13/04 Q1005 NOSIG

METARs EXPIRÉS :
  • 240730Z VRB02KT 9999 BKN045 11/06 Q1005 NOSIG
  • 240700Z 30004KT 260V320 9999 BKN045 09/07 Q1005 NOSIG
  • 240630Z VRB04KT 9999 FEW015 BKN050 09/08 Q1005 NOSIG
  • 240600Z VRB01KT 9999 FEW015 SCT045 08/07 Q1005 NOSIG
  • 240530Z 13003KT 080V190 7000 FEW008 SCT035 07/07 Q1005 NOSIG
  • 240500Z 36003KT 320V090 7000 FEW007 SCT030 BKN065 07/07 Q1005 NOSIG
  • 240430Z 23003KT 190V320 6000 FEW007 SCT020 BKN055 07/07 Q1005 NOSIG
  • 240400Z 30003KT 280V340 6000 FEW005 SCT020 BKN055 06/06 Q1005 NOSIG
  • 240330Z VRB02KT 7000 FEW005 SCT025 BKN055 06/06 Q1005

TAF TAF LQSA
Valide du 24 à 06h jusqu'au 25 à 06h UTC


240500Z 2406/2506 VRB02KT 9999 SCT050 TX13/2414Z TN03/2504Z
TEMPO 2408/2418 17012KT
TEMPO 2409/2420 SHRA FEW030TCU BKN045
PROB40
TEMPO 2410/2415 23015G25KT 4000 TSRA SCT008 FEW030CB BKN040
PROB30
TEMPO 2502/2506 1200 BCFG BKN002



MET'MAP, la Météo Aéronautique d'un coup d'oeil ! - Copyright ORBIFLY Décembre 2007 - Disclaimer

ORBIFLY MET'MAP TEAM :

Programmation & Développement : Alexandra Zaïnal
Sur une idée originale de : Baudouin d'Aumeries
Soutien technique & logistique : Manuel Goepfert
Assistance : Marc-Olivier Méhu




SOURCES & CREDITS :

   NOAA